Airfield :
LOGIN :

Register | Disclaimer

   EN    FR    IT 

 










Legend :    VFR   Marginal VFR   IFR   Intensive IFR   Very Intensive IFR
Visi :
Ceiling :
>= 8 km
>= 3000ft
5 to 8 km
1000 to 3000 ft
1500m to 5 km
500 to 1000 ft
800 to 1500m
200 to 500 ft
< 800m
< 200 ft
Symbols :   Thunderstorms  Fog  Heavy snow  Heavy precipitations  Wind > 20 kt
SIGMETs :     Misc.  Thunderstorms  Icing  Turbulence  Mountain Waves  Volcanic Ashes







- Airport Elevation : 1058 ft
- IATA code : SCN


EDDR - Saarbrücken

CURRENT METAR :
  • 211520Z 23009KT 9999 FEW004 BKN007 06/05 Q1016 BECMG BKN010

EXPIRED METARs :
  • 211450Z 22010KT 8000 FEW003 BKN005 06/05 Q1016 NOSIG
  • 211420Z 22010KT 190V250 7000 FEW003 BKN005 06/05 Q1016 NOSIG
  • 211350Z 22010KT 5000 -DZ BR SCT003 BKN004 06/05 Q1016 BECMG BKN006
  • 211320Z 23011KT 4000 BR SCT003 BKN004 06/05 Q1016 BECMG 6000 BKN006
  • 211250Z 22010KT 5000 BR FEW003 BKN004 06/05 Q1016 BECMG BKN006

TAF TAF EDDR
Valid from the 21 at 12:00 until the 22 at 12:00 UTC


211100Z 2112/2212 23011KT 7000 SCT005 OVC010
TEMPO 2112/2115 24015G25KT 2000 RADZ OVC003
TEMPO 2115/2212 3500 -DZ BR BKN007
BECMG 2209/2212 SCT010 BKN015
No reported NOTAMs for that airfield.



MET'MAP, your aeronautical weather chart ! - Copyright ORBIFLY December 2007 - Disclaimer

ORBIFLY MET'MAP TEAM :

Programming & Development : Alexandra Zaïnal
Concept & Development : Baudouin d'Aumeries
Co-Development & Prog : Marc-Olivier Méhu
Technical & hardware support : Manuel Goepfert

Contact : metmap@orbifly.com




SOURCES & CREDITS :

   NOAA